Terminal Aerodrome Forecast
Issued by NWS Cleveland, OH

Home | Current Version | Previous Version | Graphics & Text | Print | Product List | Glossary On
Versions: 1 2 3 4 5 6 7 8 9 10 11 12 13 14 15 16 17 18 19
000
FTUS41 KCLE 161700
TAFTOL
TAF
KTOL 161736Z 1618/1718 24012G20KT 6SM -RA BR OVC008
      TEMPO 1618/1621 3SM -RA OVC012
     FM162100 25012G25KT 6SM -RA BR OVC012
     FM170100 25012G22KT 6SM BR OVC008
     FM170400 25015G25KT P6SM BKN015
     FM171300 27015G25KT P6SM SCT015 BKN025=

USA.gov is the U.S. government's official web portal to all federal, state and local government web resources and services.